createdAt,value
2023-05-08T00:02:17.662Z,15.94
2023-05-08T00:04:45.949Z,15.95
2023-05-08T00:07:14.240Z,15.98
2023-05-08T00:09:42.391Z,16.01
2023-05-08T00:12:10.498Z,16.04
2023-05-08T00:14:40.149Z,16.10
2023-05-08T00:17:08.473Z,16.12
2023-05-08T00:19:36.720Z,16.13
2023-05-08T00:22:04.892Z,16.15
2023-05-08T00:24:33.217Z,16.13
2023-05-08T00:27:01.335Z,16.02
2023-05-08T00:29:29.550Z,15.94
2023-05-08T00:31:59.128Z,15.94
2023-05-08T00:34:27.442Z,15.88
2023-05-08T00:36:57.678Z,15.87
2023-05-08T00:39:25.969Z,15.79
2023-05-08T00:41:54.315Z,15.74
2023-05-08T00:44:22.477Z,15.74
2023-05-08T00:46:51.192Z,15.70
2023-05-08T00:49:21.026Z,15.59
2023-05-08T00:51:52.658Z,15.56
2023-05-08T00:54:21.724Z,15.51
2023-05-08T00:56:52.233Z,15.58
2023-05-08T00:59:22.790Z,15.64
2023-05-08T01:01:53.498Z,15.69
2023-05-08T01:04:26.786Z,15.67
2023-05-08T01:06:54.960Z,15.74
2023-05-08T01:09:23.148Z,15.73
2023-05-08T01:12:00.531Z,15.73
2023-05-08T01:14:37.718Z,15.79
2023-05-08T01:17:11.893Z,15.76
2023-05-08T01:20:12.046Z,15.72
2023-05-08T01:23:09.004Z,15.71
2023-05-08T01:26:03.646Z,15.71
2023-05-08T01:29:02.183Z,15.71
2023-05-08T01:31:44.421Z,15.70
2023-05-08T01:34:21.308Z,15.70
2023-05-08T01:36:54.234Z,15.59
2023-05-08T01:39:30.929Z,15.56
2023-05-08T01:42:06.223Z,15.58
2023-05-08T01:44:39.613Z,15.53
2023-05-08T01:47:10.907Z,15.46
2023-05-08T01:49:43.687Z,15.39
2023-05-08T01:52:19.760Z,15.37
2023-05-08T01:54:57.194Z,15.24
2023-05-08T01:57:30.150Z,15.23
2023-05-08T02:00:01.763Z,15.23
2023-05-08T02:02:30.280Z,15.25
2023-05-08T02:05:02.323Z,15.21
2023-05-08T02:07:30.506Z,15.21
2023-05-08T02:09:59.708Z,15.18
2023-05-08T02:12:29.494Z,15.18
2023-05-08T02:14:58.549Z,15.23
2023-05-08T02:17:27.545Z,15.27
2023-05-08T02:19:57.860Z,15.24
2023-05-08T02:22:28.993Z,15.23
2023-05-08T02:24:59.301Z,15.30
2023-05-08T02:27:30.500Z,15.31
2023-05-08T02:30:00.696Z,15.26
2023-05-08T02:32:31.101Z,15.31
2023-05-08T02:35:03.424Z,15.29
2023-05-08T02:37:35.553Z,15.20
2023-05-08T02:40:08.126Z,15.21
2023-05-08T02:42:36.431Z,15.23
2023-05-08T02:45:05.082Z,15.18
2023-05-08T02:47:43.580Z,15.18
2023-05-08T02:50:19.562Z,15.20
2023-05-08T02:52:52.628Z,15.24
2023-05-08T02:55:34.474Z,15.22
2023-05-08T02:58:11.325Z,15.29
2023-05-08T03:00:45.752Z,15.31
2023-05-08T03:03:21.090Z,15.33
2023-05-08T03:05:54.042Z,15.32
2023-05-08T03:08:30.050Z,15.37
2023-05-08T03:11:01.179Z,15.40
2023-05-08T03:13:33.529Z,15.43
2023-05-08T03:16:03.492Z,15.43
2023-05-08T03:18:36.504Z,15.38
2023-05-08T03:21:07.485Z,15.37
2023-05-08T03:23:40.189Z,15.37
2023-05-08T03:26:10.019Z,15.34
2023-05-08T03:28:40.492Z,15.32
2023-05-08T03:31:09.981Z,15.30
2023-05-08T03:33:40.088Z,15.29
2023-05-08T03:36:08.542Z,15.29
2023-05-08T03:38:38.224Z,15.32
2023-05-08T03:41:08.073Z,15.34
2023-05-08T03:43:38.554Z,15.40
2023-05-08T03:46:07.293Z,15.41
2023-05-08T03:48:36.181Z,15.45
2023-05-08T03:51:05.630Z,15.53
2023-05-08T03:53:34.978Z,15.54
2023-05-08T03:56:05.183Z,15.58
2023-05-08T03:58:37.904Z,15.60
2023-05-08T04:01:13.384Z,15.64
2023-05-08T04:03:55.214Z,15.63
2023-05-08T04:06:35.667Z,15.63
2023-05-08T04:09:18.579Z,15.64
2023-05-08T04:12:03.614Z,15.65
2023-05-08T04:14:36.768Z,15.66
2023-05-08T04:17:11.092Z,15.64
2023-05-08T04:19:44.603Z,15.65
2023-05-08T04:22:14.473Z,15.65
2023-05-08T04:24:45.828Z,15.65
2023-05-08T04:27:16.651Z,15.65
2023-05-08T04:29:45.194Z,15.65
2023-05-08T04:32:13.982Z,15.64
2023-05-08T04:34:42.791Z,15.67
2023-05-08T04:37:10.897Z,15.68
2023-05-08T04:39:39.123Z,15.68
2023-05-08T04:42:07.293Z,15.72
2023-05-08T04:44:36.777Z,15.72
2023-05-08T04:47:05.132Z,15.72
2023-05-08T04:49:33.859Z,15.70
2023-05-08T04:52:01.999Z,15.76
2023-05-08T04:54:30.273Z,15.75
2023-05-08T04:56:58.847Z,15.78
2023-05-08T04:59:27.080Z,15.77
2023-05-08T05:01:58.463Z,15.74
2023-05-08T05:04:26.669Z,15.76
2023-05-08T05:06:54.876Z,15.77
2023-05-08T05:09:23.121Z,15.78
2023-05-08T05:11:51.304Z,15.79
2023-05-08T05:14:19.672Z,15.81
2023-05-08T05:16:47.941Z,15.75
2023-05-08T05:19:17.544Z,15.77
2023-05-08T05:21:45.703Z,15.75
2023-05-08T05:24:13.980Z,15.75
2023-05-08T05:26:42.461Z,15.75
2023-05-08T05:29:10.644Z,15.72
2023-05-08T05:31:39.115Z,15.70
2023-05-08T05:34:07.297Z,15.74
2023-05-08T05:36:36.978Z,15.74
2023-05-08T05:39:05.384Z,15.78
2023-05-08T05:41:34.303Z,15.80
2023-05-08T05:44:02.489Z,15.83
2023-05-08T05:46:32.711Z,15.83
2023-05-08T05:49:01.083Z,15.83
2023-05-08T05:51:29.420Z,15.86
2023-05-08T05:53:59.074Z,15.86
2023-05-08T05:56:27.926Z,15.83
2023-05-08T05:58:56.124Z,15.83
2023-05-08T06:01:24.947Z,15.85
2023-05-08T06:03:53.286Z,15.86
2023-05-08T06:06:21.463Z,15.92
2023-05-08T06:08:49.801Z,15.98
2023-05-08T06:11:19.508Z,16.02
2023-05-08T06:13:50.430Z,16.04
2023-05-08T06:16:20.943Z,16.09
2023-05-08T06:18:49.195Z,16.13
2023-05-08T06:21:17.536Z,16.15
2023-05-08T06:23:45.731Z,16.19
2023-05-08T06:26:13.917Z,16.23
2023-05-08T06:28:43.570Z,16.29
2023-05-08T06:31:11.989Z,16.28
2023-05-08T06:33:40.566Z,16.34
2023-05-08T06:36:09.437Z,16.37
2023-05-08T06:38:37.796Z,16.36
2023-05-08T06:41:05.981Z,16.37
2023-05-08T06:43:34.106Z,16.36
2023-05-08T06:46:04.058Z,16.38
2023-05-08T06:48:32.323Z,16.41
2023-05-08T06:51:00.621Z,16.41
2023-05-08T06:53:28.868Z,16.45
2023-05-08T06:55:57.964Z,16.51
2023-05-08T06:58:26.359Z,16.54
2023-05-08T07:00:54.547Z,16.53
2023-05-08T07:03:24.174Z,16.52
2023-05-08T07:05:52.271Z,16.58
2023-05-08T07:08:20.460Z,16.62
2023-05-08T07:10:48.682Z,16.67
2023-05-08T07:13:21.907Z,16.70
2023-05-08T07:15:50.229Z,16.76
2023-05-08T07:18:18.433Z,16.79
2023-05-08T07:20:48.190Z,16.84
2023-05-08T07:23:16.839Z,16.88
2023-05-08T07:25:45.162Z,16.95
2023-05-08T07:28:13.418Z,17.01
2023-05-08T07:30:41.653Z,17.07
2023-05-08T07:33:09.968Z,17.10
2023-05-08T07:35:41.037Z,17.16
2023-05-08T07:38:10.967Z,17.26
2023-05-08T07:40:39.500Z,17.34
2023-05-08T07:43:07.736Z,17.39
2023-05-08T07:45:37.257Z,17.49
2023-05-08T07:48:05.924Z,17.57
2023-05-08T07:50:34.615Z,17.68
2023-05-08T07:53:02.696Z,17.78
2023-05-08T07:55:32.322Z,17.89
2023-05-08T07:58:00.870Z,17.93
2023-05-08T08:00:29.912Z,17.91
2023-05-08T08:02:58.172Z,17.86
2023-05-08T08:05:26.684Z,17.86
2023-05-08T08:07:55.660Z,17.91
2023-05-08T08:10:23.934Z,17.90
2023-05-08T08:12:53.606Z,17.90
2023-05-08T08:15:22.021Z,17.87
2023-05-08T08:17:50.238Z,17.88
2023-05-08T08:20:18.571Z,17.88
2023-05-08T08:22:46.777Z,17.84
2023-05-08T08:25:15.252Z,17.87
2023-05-08T08:27:43.585Z,17.85
2023-05-08T08:30:18.062Z,17.85
2023-05-08T08:32:47.466Z,17.82
2023-05-08T08:35:17.140Z,17.84
2023-05-08T08:37:45.681Z,17.77
2023-05-08T08:40:14.198Z,17.71
2023-05-08T08:42:42.393Z,17.73
2023-05-08T08:45:12.086Z,17.72
2023-05-08T08:47:45.831Z,17.87
2023-05-08T08:50:16.031Z,17.94
2023-05-08T08:52:49.506Z,17.97
2023-05-08T08:55:19.872Z,18.10
2023-05-08T08:57:56.752Z,18.21
2023-05-08T09:00:28.978Z,18.32
2023-05-08T09:02:59.047Z,18.45
2023-05-08T09:05:28.126Z,18.61
2023-05-08T09:07:56.844Z,18.71
2023-05-08T09:10:26.402Z,18.84
2023-05-08T09:12:54.796Z,18.90
2023-05-08T09:15:23.199Z,18.91
2023-05-08T09:17:51.536Z,18.92
2023-05-08T09:20:21.407Z,18.96
2023-05-08T09:22:50.726Z,18.94
2023-05-08T09:25:19.241Z,18.92
2023-05-08T09:27:47.499Z,18.99
2023-05-08T09:30:15.900Z,19.06
2023-05-08T09:32:45.726Z,19.18
2023-05-08T09:35:14.417Z,19.19
2023-05-08T09:37:45.111Z,19.18
2023-05-08T09:40:20.972Z,19.08
2023-05-08T09:42:51.108Z,19.06
2023-05-08T09:45:30.398Z,19.06
2023-05-08T09:47:58.921Z,19.10
2023-05-08T09:50:27.952Z,19.11
2023-05-08T09:52:57.792Z,19.09
2023-05-08T09:55:26.126Z,19.01
2023-05-08T09:57:56.614Z,18.96
2023-05-08T10:00:25.483Z,18.85
2023-05-08T10:02:59.763Z,18.71
2023-05-08T10:05:30.281Z,18.53
2023-05-08T10:08:01.234Z,18.34
2023-05-08T10:10:31.295Z,18.22
2023-05-08T10:13:00.248Z,18.13
2023-05-08T10:15:31.908Z,18.07
2023-05-08T10:18:05.050Z,18.09
2023-05-08T10:20:35.323Z,18.24
2023-05-08T10:23:07.555Z,18.42
2023-05-08T10:25:37.568Z,18.64
2023-05-08T10:28:14.570Z,18.79
2023-05-08T10:30:49.001Z,19.02
2023-05-08T10:33:21.999Z,19.19
2023-05-08T10:35:50.663Z,19.28
2023-05-08T10:38:21.411Z,19.34
2023-05-08T10:40:50.694Z,19.38
2023-05-08T10:43:19.770Z,19.45
2023-05-08T10:45:48.639Z,19.50
2023-05-08T10:48:25.166Z,19.45
2023-05-08T10:51:02.365Z,19.40
2023-05-08T10:53:41.442Z,19.31
2023-05-08T10:56:10.217Z,19.18
2023-05-08T10:58:40.441Z,19.22
2023-05-08T11:01:16.697Z,19.30
2023-05-08T11:03:47.107Z,19.42
2023-05-08T11:06:16.113Z,19.49
2023-05-08T11:08:54.852Z,19.47
2023-05-08T11:11:29.810Z,19.40
2023-05-08T11:14:10.938Z,19.37
2023-05-08T11:17:08.476Z,19.55
2023-05-08T11:19:38.145Z,19.85
2023-05-08T11:22:17.955Z,20.20
2023-05-08T11:24:54.210Z,20.28
2023-05-08T11:27:33.909Z,20.24
2023-05-08T11:30:27.177Z,20.27
2023-05-08T11:33:30.650Z,20.25
2023-05-08T11:36:00.578Z,20.30
2023-05-08T11:38:35.982Z,20.39
2023-05-08T11:41:10.615Z,20.40
2023-05-08T11:44:15.927Z,20.45
2023-05-08T11:46:49.897Z,20.56
2023-05-08T11:49:24.531Z,20.68
2023-05-08T11:51:58.059Z,20.78
2023-05-08T11:54:30.044Z,20.82
2023-05-08T11:56:59.803Z,20.83
2023-05-08T11:59:28.140Z,20.92
2023-05-08T12:02:07.552Z,20.90
2023-05-08T12:04:45.730Z,20.81
2023-05-08T12:07:14.267Z,20.73
2023-05-08T12:09:42.550Z,20.64
2023-05-08T12:12:12.224Z,20.51
2023-05-08T12:14:40.437Z,20.49
2023-05-08T12:17:08.668Z,20.55
2023-05-08T12:19:37.094Z,20.71
2023-05-08T12:22:05.470Z,20.77
2023-05-08T12:24:33.808Z,20.70
2023-05-08T12:27:02.225Z,20.60
2023-05-08T12:29:31.700Z,20.43
2023-05-08T12:32:00.048Z,20.54
2023-05-08T12:34:28.975Z,20.86
2023-05-08T12:37:04.443Z,21.05
2023-05-08T12:39:37.854Z,21.32
2023-05-08T12:42:06.316Z,21.57
2023-05-08T12:44:35.982Z,21.83
2023-05-08T12:47:06.981Z,22.01
2023-05-08T12:49:35.161Z,22.17
2023-05-08T12:52:04.845Z,22.28
2023-05-08T12:54:34.611Z,22.44
2023-05-08T12:57:03.000Z,22.60
2023-05-08T12:59:33.544Z,22.74
2023-05-08T13:02:03.368Z,22.85
2023-05-08T13:04:31.846Z,22.61
2023-05-08T13:07:00.315Z,22.31
2023-05-08T13:09:28.563Z,22.11
2023-05-08T13:11:56.773Z,21.99
2023-05-08T13:14:24.965Z,21.92
2023-05-08T13:16:53.386Z,21.85
2023-05-08T13:19:23.546Z,21.82
2023-05-08T13:21:52.988Z,21.87
2023-05-08T13:24:21.102Z,21.89
2023-05-08T13:26:49.166Z,21.83
2023-05-08T13:29:17.420Z,21.80
2023-05-08T13:31:45.885Z,21.84
2023-05-08T13:34:15.152Z,21.86
2023-05-08T13:36:44.887Z,21.87
2023-05-08T13:39:13.109Z,21.89
2023-05-08T13:41:41.154Z,21.94
2023-05-08T13:44:09.413Z,21.93
2023-05-08T13:46:37.669Z,21.99
2023-05-08T13:49:05.834Z,21.97
2023-05-08T13:51:34.061Z,21.89
2023-05-08T13:54:03.522Z,21.76
2023-05-08T13:56:31.664Z,21.65
2023-05-08T13:58:59.773Z,21.62
2023-05-08T14:01:28.025Z,21.93
2023-05-08T14:03:56.692Z,22.03
2023-05-08T14:06:25.025Z,21.98
2023-05-08T14:08:55.414Z,21.95
2023-05-08T14:11:27.061Z,22.00
2023-05-08T14:13:55.242Z,22.01
2023-05-08T14:16:23.584Z,21.93
2023-05-08T14:18:51.796Z,21.88
2023-05-08T14:21:20.025Z,21.83
2023-05-08T14:23:48.121Z,21.88
2023-05-08T14:26:16.485Z,21.91
2023-05-08T14:28:46.139Z,21.86
2023-05-08T14:31:14.341Z,21.80
2023-05-08T14:33:42.571Z,21.75
2023-05-08T14:36:11.324Z,21.67
2023-05-08T14:38:39.473Z,21.57
2023-05-08T14:41:07.645Z,21.51
2023-05-08T14:43:35.743Z,21.51
2023-05-08T14:46:05.457Z,21.55
2023-05-08T14:48:33.766Z,21.60
2023-05-08T14:51:01.919Z,21.72
2023-05-08T14:53:30.276Z,21.85
2023-05-08T14:56:00.253Z,21.90
2023-05-08T14:58:28.731Z,22.04
2023-05-08T15:00:56.920Z,22.23
2023-05-08T15:03:27.123Z,22.41
2023-05-08T15:05:55.578Z,22.40
2023-05-08T15:08:23.828Z,22.33
2023-05-08T15:10:52.341Z,22.16
2023-05-08T15:13:20.632Z,22.04
2023-05-08T15:15:48.865Z,21.87
2023-05-08T15:18:17.136Z,21.73
2023-05-08T15:20:46.673Z,21.75
2023-05-08T15:23:14.813Z,21.90
2023-05-08T15:25:43.010Z,21.89
2023-05-08T15:28:11.264Z,21.81
2023-05-08T15:30:39.354Z,21.80
2023-05-08T15:33:07.684Z,21.76
2023-05-08T15:35:35.947Z,21.68
2023-05-08T15:38:07.287Z,21.66
2023-05-08T15:40:35.651Z,21.50
2023-05-08T15:43:04.147Z,21.50
2023-05-08T15:45:33.922Z,21.50
2023-05-08T15:48:02.315Z,21.60
2023-05-08T15:50:30.838Z,21.72
2023-05-08T15:52:59.068Z,21.76
2023-05-08T15:55:28.711Z,21.76
2023-05-08T15:57:56.867Z,21.75
2023-05-08T16:00:30.131Z,21.67
2023-05-08T16:03:05.408Z,21.53
2023-05-08T16:05:33.626Z,21.46
2023-05-08T16:08:01.818Z,21.37
2023-05-08T16:10:31.544Z,21.35
2023-05-08T16:12:59.831Z,21.32
2023-05-08T16:15:28.095Z,21.32
2023-05-08T16:17:56.304Z,21.32
2023-05-08T16:20:24.600Z,21.33
2023-05-08T16:22:55.534Z,21.31
2023-05-08T16:25:24.251Z,21.36
2023-05-08T16:27:53.881Z,21.36
2023-05-08T16:30:22.122Z,21.35
2023-05-08T16:32:50.549Z,21.26
2023-05-08T16:35:19.799Z,21.21
2023-05-08T16:37:48.586Z,21.16
2023-05-08T16:40:16.900Z,21.06
2023-05-08T16:42:45.038Z,20.93
2023-05-08T16:45:14.944Z,20.86
2023-05-08T16:47:43.418Z,20.82
2023-05-08T16:50:12.441Z,20.85
2023-05-08T16:52:40.657Z,20.87
2023-05-08T16:55:11.221Z,20.90
2023-05-08T16:57:39.599Z,21.04
2023-05-08T17:00:09.510Z,21.08
2023-05-08T17:02:39.161Z,21.16
2023-05-08T17:05:08.172Z,21.19
2023-05-08T17:07:36.403Z,21.24
2023-05-08T17:10:04.837Z,21.22
2023-05-08T17:12:33.184Z,21.15
2023-05-08T17:15:01.342Z,21.08
2023-05-08T17:17:29.567Z,21.00
2023-05-08T17:19:59.160Z,20.89
2023-05-08T17:22:27.457Z,20.77
2023-05-08T17:24:55.599Z,20.70
2023-05-08T17:27:23.824Z,20.66
2023-05-08T17:29:51.985Z,20.54
2023-05-08T17:32:20.244Z,20.51
2023-05-08T17:34:48.396Z,20.48
2023-05-08T17:37:18.043Z,20.43
2023-05-08T17:39:46.245Z,20.39
2023-05-08T17:42:14.443Z,20.39
2023-05-08T17:44:42.702Z,20.33
2023-05-08T17:47:11.181Z,20.33
2023-05-08T17:49:39.288Z,20.30
2023-05-08T17:52:07.570Z,20.21
2023-05-08T17:54:37.216Z,20.17
2023-05-08T17:57:05.465Z,20.08
2023-05-08T17:59:33.718Z,20.00
2023-05-08T18:02:01.996Z,19.93
2023-05-08T18:04:30.291Z,19.85
2023-05-08T18:07:01.389Z,19.78
2023-05-08T18:09:29.543Z,19.65
2023-05-08T18:12:02.566Z,19.53
2023-05-08T18:14:32.357Z,19.34
2023-05-08T18:17:03.088Z,19.11
2023-05-08T18:19:31.345Z,18.81
2023-05-08T18:21:59.513Z,18.53
2023-05-08T18:24:27.773Z,18.32
2023-05-08T18:26:55.898Z,18.16
2023-05-08T18:29:26.037Z,18.18
2023-05-08T18:31:54.310Z,18.10
2023-05-08T18:34:22.536Z,18.09
2023-05-08T18:36:50.977Z,18.07
2023-05-08T18:39:19.317Z,18.07
2023-05-08T18:41:47.631Z,18.05
2023-05-08T18:44:15.859Z,18.04
2023-05-08T18:46:45.438Z,18.06
2023-05-08T18:49:13.687Z,18.00
2023-05-08T18:51:42.114Z,17.95
2023-05-08T18:54:10.415Z,17.87
2023-05-08T18:56:38.747Z,17.64
2023-05-08T18:59:07.144Z,17.63
2023-05-08T19:01:35.547Z,17.63
2023-05-08T19:04:05.666Z,17.66
2023-05-08T19:06:33.954Z,17.64
2023-05-08T19:09:02.134Z,17.67
2023-05-08T19:11:30.343Z,17.72
2023-05-08T19:13:58.521Z,17.73
2023-05-08T19:16:26.986Z,17.69
2023-05-08T19:18:55.242Z,17.71
2023-05-08T19:21:24.874Z,17.72
2023-05-08T19:23:53.183Z,17.73
2023-05-08T19:26:21.459Z,17.77
2023-05-08T19:28:49.697Z,17.79
2023-05-08T19:31:17.831Z,17.82
2023-05-08T19:33:47.414Z,17.86
2023-05-08T19:36:15.724Z,17.87
2023-05-08T19:38:45.358Z,17.86
2023-05-08T19:41:13.468Z,17.80
2023-05-08T19:43:41.658Z,17.77
2023-05-08T19:46:10.060Z,17.76
2023-05-08T19:48:38.295Z,17.71
2023-05-08T19:51:10.236Z,17.73
2023-05-08T19:53:39.846Z,17.67
2023-05-08T19:56:10.058Z,17.65
2023-05-08T19:58:38.205Z,17.61
2023-05-08T20:01:06.620Z,17.59
2023-05-08T20:03:34.863Z,17.52
2023-05-08T20:06:03.106Z,17.48
2023-05-08T20:08:31.330Z,17.41
2023-05-08T20:11:02.521Z,17.37
2023-05-08T20:13:32.019Z,17.34
2023-05-08T20:16:00.169Z,17.29
2023-05-08T20:18:28.419Z,17.24
2023-05-08T20:20:56.640Z,17.18
2023-05-08T20:23:24.838Z,17.09
2023-05-08T20:25:54.336Z,17.05
2023-05-08T20:28:26.237Z,17.00
2023-05-08T20:30:55.932Z,16.99
2023-05-08T20:33:24.177Z,16.93
2023-05-08T20:35:53.400Z,16.93
2023-05-08T20:38:22.030Z,16.91
2023-05-08T20:40:50.252Z,16.88
2023-05-08T20:43:19.568Z,16.84
2023-05-08T20:45:49.297Z,16.80
2023-05-08T20:48:19.054Z,16.72
2023-05-08T20:50:49.308Z,16.72
2023-05-08T20:53:17.618Z,16.70
2023-05-08T20:55:45.749Z,16.68
2023-05-08T20:58:13.895Z,16.65
2023-05-08T21:00:42.011Z,16.62
2023-05-08T21:03:10.264Z,16.61
2023-05-08T21:05:39.923Z,16.60
2023-05-08T21:08:08.803Z,16.60
2023-05-08T21:10:36.884Z,16.57
2023-05-08T21:13:05.559Z,16.55
2023-05-08T21:15:35.104Z,16.53
2023-05-08T21:18:03.442Z,16.51
2023-05-08T21:20:34.290Z,16.52
2023-05-08T21:23:03.859Z,16.50
2023-05-08T21:25:32.125Z,16.49
2023-05-08T21:28:00.390Z,16.50
2023-05-08T21:30:28.648Z,16.50
2023-05-08T21:32:58.234Z,16.47
2023-05-08T21:35:26.498Z,16.47
2023-05-08T21:37:54.884Z,16.47
2023-05-08T21:40:24.680Z,16.46
2023-05-08T21:42:52.941Z,16.43
2023-05-08T21:45:21.215Z,16.39
2023-05-08T21:47:49.309Z,16.39
2023-05-08T21:50:17.663Z,16.40
2023-05-08T21:52:45.852Z,16.39
2023-05-08T21:55:14.335Z,16.37
2023-05-08T21:57:44.215Z,16.33
2023-05-08T22:00:13.849Z,16.33
2023-05-08T22:02:42.046Z,16.31
2023-05-08T22:05:10.619Z,16.24
2023-05-08T22:07:38.750Z,16.24
2023-05-08T22:10:09.212Z,16.25
2023-05-08T22:12:37.573Z,16.21
2023-05-08T22:15:25.618Z,16.23
2023-05-08T22:17:57.180Z,16.17
2023-05-08T22:20:25.870Z,16.18
2023-05-08T22:22:54.230Z,16.16
2023-05-08T22:25:22.517Z,16.13
2023-05-08T22:27:50.935Z,16.10
2023-05-08T22:30:20.686Z,16.10
2023-05-08T22:32:54.525Z,16.07
2023-05-08T22:35:24.287Z,16.03
2023-05-08T22:37:52.964Z,15.99
2023-05-08T22:40:22.329Z,15.95
2023-05-08T22:42:51.866Z,15.90
2023-05-08T22:45:21.717Z,15.86
2023-05-08T22:47:50.348Z,15.86
2023-05-08T22:50:19.129Z,15.84
2023-05-08T22:52:47.344Z,15.82
2023-05-08T22:55:16.595Z,15.78
2023-05-08T22:57:45.004Z,15.73
2023-05-08T23:00:15.243Z,15.72
2023-05-08T23:02:45.088Z,15.73
2023-05-08T23:05:13.589Z,15.66
2023-05-08T23:07:42.327Z,15.63
2023-05-08T23:10:11.571Z,15.61
2023-05-08T23:12:39.737Z,15.58
2023-05-08T23:15:09.529Z,15.57
2023-05-08T23:17:37.952Z,15.52
2023-05-08T23:20:09.428Z,15.52
2023-05-08T23:22:37.620Z,15.50
2023-05-08T23:25:06.527Z,15.47
2023-05-08T23:27:34.649Z,15.45
2023-05-08T23:30:02.992Z,15.45
2023-05-08T23:32:31.346Z,15.41
2023-05-08T23:34:59.468Z,15.39
2023-05-08T23:37:29.354Z,15.35
2023-05-08T23:39:57.511Z,15.34
2023-05-08T23:42:25.799Z,15.32
2023-05-08T23:44:54.001Z,15.29
2023-05-08T23:47:22.651Z,15.28
2023-05-08T23:49:50.872Z,15.25
2023-05-08T23:52:18.977Z,15.23
2023-05-08T23:54:48.621Z,15.24
2023-05-08T23:57:16.836Z,15.22
2023-05-08T23:59:45.039Z,15.19
